createdAt,value
2022-08-03T00:00:14.900Z,0.00
2022-08-03T00:01:14.874Z,0.00
2022-08-03T00:02:15.105Z,0.00
2022-08-03T00:03:14.939Z,0.00
2022-08-03T00:04:14.837Z,0.00
2022-08-03T00:05:14.827Z,0.00
2022-08-03T00:06:14.811Z,0.00
2022-08-03T00:07:14.798Z,0.00
2022-08-03T00:08:14.781Z,0.00
2022-08-03T00:09:14.771Z,0.00
2022-08-03T00:10:14.758Z,0.00
2022-08-03T00:11:14.743Z,0.00
2022-08-03T00:12:15.094Z,0.00
2022-08-03T00:13:14.718Z,0.00
2022-08-03T00:14:14.704Z,0.00
2022-08-03T00:15:16.406Z,0.00
2022-08-03T00:16:14.675Z,0.00
2022-08-03T00:17:14.661Z,0.00
2022-08-03T00:18:14.649Z,0.00
2022-08-03T00:19:14.636Z,0.00
2022-08-03T00:20:14.624Z,0.00
2022-08-03T00:21:14.604Z,0.00
2022-08-03T00:22:14.887Z,0.00
2022-08-03T00:23:14.581Z,0.00
2022-08-03T00:24:14.569Z,0.00
2022-08-03T00:25:14.552Z,0.00
2022-08-03T00:26:14.542Z,0.00
2022-08-03T00:27:16.640Z,0.00
2022-08-03T00:28:14.516Z,0.00
2022-08-03T00:29:14.495Z,0.00
2022-08-03T00:30:14.492Z,0.00
2022-08-03T00:31:14.475Z,0.00
2022-08-03T00:32:14.741Z,0.00
2022-08-03T00:33:14.479Z,0.00
2022-08-03T00:34:14.439Z,0.00
2022-08-03T00:35:28.708Z,0.00
2022-08-03T00:36:14.411Z,0.00
2022-08-03T00:37:14.392Z,0.00
2022-08-03T00:38:14.380Z,0.00
2022-08-03T00:39:14.364Z,0.00
2022-08-03T00:40:14.351Z,0.00
2022-08-03T00:41:15.741Z,0.00
2022-08-03T00:42:14.595Z,0.00
2022-08-03T00:43:14.310Z,0.00
2022-08-03T00:44:14.301Z,0.00
2022-08-03T00:45:14.284Z,0.00
2022-08-03T00:46:17.680Z,0.00
2022-08-03T00:47:14.264Z,0.00
2022-08-03T00:48:23.295Z,0.00
2022-08-03T00:49:14.260Z,0.00
2022-08-03T00:50:14.218Z,0.00
2022-08-03T00:51:14.201Z,0.00
2022-08-03T00:52:14.191Z,0.00
2022-08-03T00:53:14.180Z,0.00
2022-08-03T00:54:14.159Z,0.00
2022-08-03T00:55:14.175Z,0.00
2022-08-03T00:56:14.141Z,0.00
2022-08-03T00:57:14.121Z,0.00
2022-08-03T00:58:14.109Z,0.00
2022-08-03T00:59:14.094Z,0.00
2022-08-03T01:00:14.086Z,0.00
2022-08-03T01:01:14.221Z,0.00
2022-08-03T01:02:14.336Z,0.00
2022-08-03T01:03:14.046Z,0.00
2022-08-03T01:04:14.031Z,0.00
2022-08-03T01:05:14.049Z,0.00
2022-08-03T01:06:14.000Z,0.00
2022-08-03T01:07:13.985Z,0.00
2022-08-03T01:08:13.970Z,0.00
2022-08-03T01:09:13.955Z,0.00
2022-08-03T01:10:13.942Z,0.00
2022-08-03T01:11:13.932Z,0.00
2022-08-03T01:12:14.264Z,0.00
2022-08-03T01:13:13.970Z,0.00
2022-08-03T01:14:18.419Z,0.00
2022-08-03T01:15:13.878Z,0.00
2022-08-03T01:16:13.876Z,0.00
2022-08-03T01:17:13.853Z,0.00
2022-08-03T01:18:13.836Z,0.00
2022-08-03T01:19:13.823Z,0.00
2022-08-03T01:20:13.813Z,0.00
2022-08-03T01:21:13.796Z,0.00
2022-08-03T01:22:14.011Z,0.00
2022-08-03T01:23:13.766Z,0.00
2022-08-03T01:24:13.755Z,0.00
2022-08-03T01:25:13.740Z,0.00
2022-08-03T01:26:13.726Z,0.00
2022-08-03T01:27:13.711Z,0.00
2022-08-03T01:28:13.704Z,0.00
2022-08-03T01:29:13.689Z,0.00
2022-08-03T01:30:13.672Z,0.00
2022-08-03T01:31:13.656Z,0.00
2022-08-03T01:32:58.773Z,0.00
2022-08-03T01:33:13.648Z,0.00
2022-08-03T01:34:14.751Z,0.00
2022-08-03T01:35:13.605Z,0.00
2022-08-03T01:36:13.592Z,0.00
2022-08-03T01:37:13.581Z,0.00
2022-08-03T01:38:13.567Z,0.00
2022-08-03T01:39:13.548Z,0.00
2022-08-03T01:40:13.537Z,0.00
2022-08-03T01:41:13.523Z,0.00
2022-08-03T01:42:13.899Z,0.00
2022-08-03T01:43:13.492Z,0.00
2022-08-03T01:44:27.451Z,0.00
2022-08-03T01:45:13.467Z,0.00
2022-08-03T01:46:13.450Z,0.00
2022-08-03T01:47:13.434Z,0.00
2022-08-03T01:48:13.420Z,0.00
2022-08-03T01:49:13.459Z,0.00
2022-08-03T01:50:13.395Z,0.00
2022-08-03T01:51:13.380Z,0.00
2022-08-03T01:52:13.367Z,0.00
2022-08-03T01:53:13.354Z,0.00
2022-08-03T01:54:13.342Z,0.00
2022-08-03T01:55:13.327Z,0.00
2022-08-03T01:56:13.311Z,0.00
2022-08-03T01:57:13.295Z,0.00
2022-08-03T01:58:13.284Z,0.00
2022-08-03T01:59:13.273Z,0.00
2022-08-03T02:00:13.257Z,0.00
2022-08-03T02:01:13.293Z,0.00
2022-08-03T02:02:27.536Z,0.00
2022-08-03T02:03:13.218Z,0.00
2022-08-03T02:04:13.201Z,0.00
2022-08-03T02:05:13.182Z,0.00
2022-08-03T02:06:59.942Z,0.00
2022-08-03T02:07:13.158Z,0.00
2022-08-03T02:08:13.143Z,0.00
2022-08-03T02:09:13.129Z,0.00
2022-08-03T02:10:13.116Z,0.00
2022-08-03T02:11:13.100Z,0.00
2022-08-03T02:12:13.087Z,0.00
2022-08-03T02:13:13.076Z,0.00
2022-08-03T02:14:13.067Z,0.00
2022-08-03T02:15:13.074Z,0.00
2022-08-03T02:16:13.038Z,0.00
2022-08-03T02:17:13.019Z,0.00
2022-08-03T02:18:13.005Z,0.00
2022-08-03T02:19:12.992Z,0.00
2022-08-03T02:20:12.977Z,0.00
2022-08-03T02:21:12.960Z,0.00
2022-08-03T02:22:12.968Z,0.00
2022-08-03T02:23:12.936Z,0.00
2022-08-03T02:24:12.919Z,0.00
2022-08-03T02:25:12.907Z,0.00
2022-08-03T02:26:12.893Z,0.00
2022-08-03T02:27:12.881Z,0.00
2022-08-03T02:28:12.869Z,0.00
2022-08-03T02:29:12.853Z,0.00
2022-08-03T02:30:12.837Z,0.00
2022-08-03T02:31:12.824Z,0.00
2022-08-03T02:32:12.822Z,0.00
2022-08-03T02:33:12.801Z,0.00
2022-08-03T02:34:12.783Z,0.00
2022-08-03T02:35:12.768Z,0.00
2022-08-03T02:36:12.752Z,0.00
2022-08-03T02:37:12.737Z,0.00
2022-08-03T02:38:12.730Z,0.00
2022-08-03T02:39:12.711Z,0.00
2022-08-03T02:40:12.702Z,0.00
2022-08-03T02:41:12.682Z,0.00
2022-08-03T02:42:13.006Z,0.00
2022-08-03T02:43:12.654Z,0.00
2022-08-03T02:44:12.639Z,0.00
2022-08-03T02:45:12.631Z,0.00
2022-08-03T02:46:12.616Z,0.00
2022-08-03T02:47:12.608Z,0.00
2022-08-03T02:48:12.587Z,0.00
2022-08-03T02:49:41.396Z,0.00
2022-08-03T02:50:12.612Z,0.00
2022-08-03T02:51:12.544Z,0.00
2022-08-03T02:52:13.255Z,0.00
2022-08-03T02:53:12.514Z,0.00
2022-08-03T02:54:12.496Z,0.00
2022-08-03T02:55:12.493Z,0.00
2022-08-03T02:56:12.469Z,0.00
2022-08-03T02:57:12.457Z,0.00
2022-08-03T02:58:12.440Z,0.00
2022-08-03T02:59:12.433Z,0.00
2022-08-03T03:00:12.417Z,0.00
2022-08-03T03:01:12.554Z,0.00
2022-08-03T03:02:12.392Z,0.00
2022-08-03T03:03:12.375Z,0.00
2022-08-03T03:04:12.357Z,0.00
2022-08-03T03:05:56.116Z,0.00
2022-08-03T03:06:12.329Z,0.00
2022-08-03T03:07:12.317Z,0.00
2022-08-03T03:08:18.682Z,0.00
2022-08-03T03:09:12.285Z,0.00
2022-08-03T03:10:12.275Z,0.00
2022-08-03T03:11:12.258Z,0.00
2022-08-03T03:12:12.241Z,0.00
2022-08-03T03:13:12.227Z,0.00
2022-08-03T03:14:12.218Z,0.00
2022-08-03T03:15:12.200Z,0.00
2022-08-03T03:16:12.192Z,0.00
2022-08-03T03:17:12.169Z,0.00
2022-08-03T03:18:12.161Z,0.00
2022-08-03T03:19:12.144Z,0.00
2022-08-03T03:20:12.145Z,0.00
2022-08-03T03:21:12.120Z,0.00
2022-08-03T03:22:12.101Z,0.00
2022-08-03T03:23:12.085Z,0.00
2022-08-03T03:24:12.077Z,0.00
2022-08-03T03:25:12.058Z,0.00
2022-08-03T03:26:12.045Z,0.00
2022-08-03T03:27:12.031Z,0.00
2022-08-03T03:28:12.019Z,0.00
2022-08-03T03:29:12.002Z,0.00
2022-08-03T03:30:11.987Z,0.00
2022-08-03T03:31:11.972Z,0.00
2022-08-03T03:32:11.959Z,0.00
2022-08-03T03:33:11.940Z,0.00
2022-08-03T03:34:11.932Z,0.00
2022-08-03T03:35:11.915Z,0.00
2022-08-03T03:36:11.903Z,0.00
2022-08-03T03:37:11.883Z,0.00
2022-08-03T03:38:11.878Z,0.00
2022-08-03T03:39:16.015Z,0.00
2022-08-03T03:40:11.845Z,0.00
2022-08-03T03:41:11.831Z,0.00
2022-08-03T03:42:11.815Z,0.00
2022-08-03T03:43:11.797Z,0.00
2022-08-03T03:44:11.786Z,0.00
2022-08-03T03:45:11.771Z,0.00
2022-08-03T03:46:11.762Z,0.00
2022-08-03T03:47:11.740Z,0.00
2022-08-03T03:48:11.734Z,0.00
2022-08-03T03:49:11.743Z,0.00
2022-08-03T03:50:11.698Z,0.00
2022-08-03T03:51:11.682Z,0.00
2022-08-03T03:52:11.673Z,0.00
2022-08-03T03:53:11.663Z,0.00
2022-08-03T03:54:11.649Z,0.00
2022-08-03T03:55:11.632Z,0.00
2022-08-03T03:56:11.615Z,0.00
2022-08-03T03:57:13.114Z,0.00
2022-08-03T03:58:11.588Z,0.00
2022-08-03T03:59:11.573Z,0.00
2022-08-03T04:00:11.560Z,0.00
2022-08-03T04:01:11.572Z,0.00
2022-08-03T04:02:11.533Z,0.00
2022-08-03T04:03:11.514Z,5.63
2022-08-03T04:04:11.500Z,5.63
2022-08-03T04:05:11.483Z,5.63
2022-08-03T04:06:11.469Z,5.63
2022-08-03T04:07:11.457Z,5.63
2022-08-03T04:08:11.443Z,5.63
2022-08-03T04:09:11.429Z,5.63
2022-08-03T04:10:14.861Z,5.63
2022-08-03T04:11:11.398Z,5.63
2022-08-03T04:12:11.384Z,5.63
2022-08-03T04:13:11.369Z,5.63
2022-08-03T04:14:11.355Z,5.63
2022-08-03T04:15:11.342Z,5.63
2022-08-03T04:16:11.328Z,5.63
2022-08-03T04:17:11.311Z,5.63
2022-08-03T04:18:11.296Z,11.25
2022-08-03T04:19:11.285Z,11.25
2022-08-03T04:20:11.270Z,11.25
2022-08-03T04:21:11.269Z,11.25
2022-08-03T04:22:11.242Z,11.25
2022-08-03T04:23:13.551Z,11.25
2022-08-03T04:24:11.217Z,11.25
2022-08-03T04:25:11.197Z,11.25
2022-08-03T04:26:11.197Z,11.25
2022-08-03T04:27:11.302Z,11.25
2022-08-03T04:28:30.343Z,11.25
2022-08-03T04:29:11.143Z,11.25
2022-08-03T04:30:11.124Z,16.88
2022-08-03T04:31:11.109Z,16.88
2022-08-03T04:32:11.094Z,16.88
2022-08-03T04:33:11.079Z,16.88
2022-08-03T04:34:11.068Z,16.88
2022-08-03T04:35:11.056Z,16.88
2022-08-03T04:36:11.043Z,16.88
2022-08-03T04:37:11.026Z,16.88
2022-08-03T04:38:11.013Z,16.88
2022-08-03T04:39:10.994Z,16.88
2022-08-03T04:40:10.978Z,22.50
2022-08-03T04:41:10.971Z,22.50
2022-08-03T04:42:10.949Z,22.50
2022-08-03T04:43:10.940Z,22.50
2022-08-03T04:44:10.927Z,22.50
2022-08-03T04:45:10.912Z,22.50
2022-08-03T04:46:10.901Z,22.50
2022-08-03T04:47:10.881Z,22.50
2022-08-03T04:48:10.869Z,22.50
2022-08-03T04:49:10.884Z,28.13
2022-08-03T04:50:13.573Z,28.13
2022-08-03T04:51:10.829Z,28.13
2022-08-03T04:52:11.002Z,28.13
2022-08-03T04:53:10.799Z,28.13
2022-08-03T04:54:10.777Z,28.13
2022-08-03T04:55:10.767Z,28.13
2022-08-03T04:56:10.749Z,28.13
2022-08-03T04:57:10.745Z,28.13
2022-08-03T04:58:10.725Z,28.13
2022-08-03T04:59:10.711Z,28.13
2022-08-03T05:00:10.693Z,33.75
2022-08-03T05:01:10.753Z,33.75
2022-08-03T05:02:10.815Z,33.75
2022-08-03T05:03:23.534Z,33.75
2022-08-03T05:04:10.638Z,33.75
2022-08-03T05:05:10.623Z,33.75
2022-08-03T05:06:11.321Z,33.75
2022-08-03T05:07:12.466Z,33.75
2022-08-03T05:08:11.228Z,33.75
2022-08-03T05:09:10.566Z,33.75
2022-08-03T05:10:15.863Z,33.75
2022-08-03T05:11:10.538Z,33.75
2022-08-03T05:12:10.524Z,33.75
2022-08-03T05:13:10.507Z,39.38
2022-08-03T05:14:10.494Z,39.38
2022-08-03T05:15:10.478Z,39.38
2022-08-03T05:16:10.464Z,39.38
2022-08-03T05:17:10.449Z,39.38
2022-08-03T05:18:13.875Z,39.38
2022-08-03T05:19:10.426Z,39.38
2022-08-03T05:20:10.405Z,39.38
2022-08-03T05:21:10.392Z,39.38
2022-08-03T05:22:10.427Z,39.38
2022-08-03T05:23:10.368Z,39.38
2022-08-03T05:24:10.350Z,39.38
2022-08-03T05:25:10.337Z,45.00
2022-08-03T05:26:10.322Z,45.00
2022-08-03T05:27:10.306Z,45.00
2022-08-03T05:28:10.291Z,45.00
2022-08-03T05:29:10.283Z,45.00
2022-08-03T05:30:29.744Z,45.00
2022-08-03T05:31:10.253Z,50.63
2022-08-03T05:32:10.274Z,50.63
2022-08-03T05:33:10.226Z,50.63
2022-08-03T05:34:10.210Z,50.63
2022-08-03T05:36:01.805Z,50.63
2022-08-03T05:36:10.183Z,50.63
2022-08-03T05:37:10.167Z,50.63
2022-08-03T05:38:10.154Z,56.25
2022-08-03T05:39:10.145Z,56.25
2022-08-03T05:40:10.129Z,56.25
2022-08-03T05:41:22.032Z,56.25
2022-08-03T05:42:10.155Z,56.25
2022-08-03T05:43:10.088Z,56.25
2022-08-03T05:44:10.073Z,56.25
2022-08-03T05:45:10.060Z,56.25
2022-08-03T05:46:12.108Z,50.63
2022-08-03T05:47:10.035Z,56.25
2022-08-03T05:48:10.018Z,56.25
2022-08-03T05:49:10.053Z,56.25
2022-08-03T05:50:09.989Z,56.25
2022-08-03T05:51:09.982Z,61.88
2022-08-03T05:52:14.203Z,61.88
2022-08-03T05:53:09.952Z,56.25
2022-08-03T05:54:09.935Z,61.88
2022-08-03T05:55:09.923Z,61.88
2022-08-03T05:56:13.875Z,61.88
2022-08-03T05:57:09.899Z,61.88
2022-08-03T05:58:09.880Z,61.88
2022-08-03T05:59:35.729Z,61.88
2022-08-03T06:00:09.854Z,61.88
2022-08-03T06:01:09.890Z,61.88
2022-08-03T06:02:10.013Z,61.88
2022-08-03T06:03:09.811Z,67.50
2022-08-03T06:04:09.796Z,61.88
2022-08-03T06:05:09.783Z,67.50
2022-08-03T06:06:09.774Z,61.88
2022-08-03T06:07:09.758Z,61.88
2022-08-03T06:08:09.745Z,61.88
2022-08-03T06:09:09.733Z,61.88
2022-08-03T06:10:35.525Z,61.88
2022-08-03T06:11:09.814Z,61.88
2022-08-03T06:12:13.956Z,61.88
2022-08-03T06:13:09.676Z,61.88
2022-08-03T06:14:09.662Z,61.88
2022-08-03T06:15:11.681Z,67.50
2022-08-03T06:16:09.639Z,73.13
2022-08-03T06:17:09.622Z,73.13
2022-08-03T06:18:09.617Z,73.13
2022-08-03T06:19:09.597Z,73.13
2022-08-03T06:20:09.593Z,73.13
2022-08-03T06:21:14.300Z,78.75
2022-08-03T06:22:09.612Z,78.75
2022-08-03T06:23:15.990Z,78.75
2022-08-03T06:24:09.536Z,73.13
2022-08-03T06:25:12.791Z,73.13
2022-08-03T06:26:09.513Z,73.13
2022-08-03T06:27:09.491Z,73.13
2022-08-03T06:28:14.986Z,73.13
2022-08-03T06:29:09.994Z,73.13
2022-08-03T06:30:09.452Z,73.13
2022-08-03T06:31:09.444Z,78.75
2022-08-03T06:32:09.430Z,78.75
2022-08-03T06:33:09.417Z,78.75
2022-08-03T06:34:33.567Z,78.75
2022-08-03T06:35:09.391Z,84.38
2022-08-03T06:36:09.381Z,84.38
2022-08-03T06:37:09.368Z,84.38
2022-08-03T06:38:09.352Z,84.38
2022-08-03T06:39:09.339Z,84.38
2022-08-03T06:40:09.329Z,84.38
2022-08-03T06:41:09.312Z,84.38
2022-08-03T06:42:09.868Z,78.75
2022-08-03T06:43:12.763Z,84.38
2022-08-03T06:44:09.272Z,84.38
2022-08-03T06:45:09.260Z,90.00
2022-08-03T06:46:09.248Z,90.00
2022-08-03T06:47:09.234Z,90.00
2022-08-03T06:48:09.225Z,95.63
2022-08-03T06:49:09.333Z,95.63
2022-08-03T06:50:14.439Z,95.63
2022-08-03T06:51:09.184Z,95.63
2022-08-03T06:52:09.173Z,95.63
2022-08-03T06:53:09.161Z,84.38
2022-08-03T06:54:09.146Z,84.38
2022-08-03T06:55:09.132Z,84.38
2022-08-03T06:56:09.123Z,84.38
2022-08-03T06:57:09.111Z,90.00
2022-08-03T06:58:09.098Z,95.63
2022-08-03T06:59:09.085Z,95.63
2022-08-03T07:00:12.166Z,95.63
2022-08-03T07:01:09.103Z,95.63
2022-08-03T07:02:09.047Z,101.25
2022-08-03T07:03:09.042Z,106.88
2022-08-03T07:04:09.025Z,106.88
2022-08-03T07:05:09.008Z,106.88
2022-08-03T07:06:08.996Z,106.88
2022-08-03T07:07:08.986Z,106.88
2022-08-03T07:08:08.973Z,106.88
2022-08-03T07:09:08.961Z,112.50
2022-08-03T07:10:08.948Z,112.50
2022-08-03T07:11:08.934Z,106.88
2022-08-03T07:12:08.919Z,112.50
2022-08-03T07:13:08.912Z,112.50
2022-08-03T07:14:08.899Z,118.13
2022-08-03T07:15:08.890Z,118.13
2022-08-03T07:16:08.876Z,123.75
2022-08-03T07:17:11.805Z,123.75
2022-08-03T07:18:08.855Z,123.75
2022-08-03T07:19:08.849Z,123.75
2022-08-03T07:20:08.823Z,123.75
2022-08-03T07:21:08.818Z,129.38
2022-08-03T07:22:08.815Z,129.38
2022-08-03T07:23:08.795Z,129.38
2022-08-03T07:24:08.782Z,129.38
2022-08-03T07:25:08.770Z,129.38
2022-08-03T07:26:08.760Z,129.38
2022-08-03T07:27:08.742Z,129.38
2022-08-03T07:28:08.733Z,129.38
2022-08-03T07:29:14.858Z,129.38
2022-08-03T07:30:08.709Z,129.38
2022-08-03T07:31:08.695Z,129.38
2022-08-03T07:32:08.694Z,129.38
2022-08-03T07:33:08.672Z,129.38
2022-08-03T07:34:08.666Z,135.00
2022-08-03T07:35:08.936Z,135.00
2022-08-03T07:36:08.637Z,135.00
2022-08-03T07:37:08.627Z,129.38
2022-08-03T07:38:08.619Z,129.38
2022-08-03T07:39:17.588Z,135.00
2022-08-03T07:40:08.592Z,135.00
2022-08-03T07:41:08.583Z,135.00
2022-08-03T07:42:08.572Z,146.25
2022-08-03T07:43:08.567Z,146.25
2022-08-03T07:44:08.547Z,146.25
2022-08-03T07:45:08.537Z,146.25
2022-08-03T07:46:08.536Z,151.88
2022-08-03T07:47:09.155Z,151.88
2022-08-03T07:48:12.113Z,151.88
2022-08-03T07:49:08.507Z,151.88
2022-08-03T07:50:08.864Z,157.50
2022-08-03T07:51:08.466Z,185.63
2022-08-03T07:52:08.455Z,168.75
2022-08-03T07:53:08.443Z,174.38
2022-08-03T07:54:08.436Z,191.25
2022-08-03T07:55:08.443Z,270.00
2022-08-03T07:56:10.124Z,196.88
2022-08-03T07:57:08.402Z,911.25
2022-08-03T07:58:08.391Z,1164.38
2022-08-03T07:59:08.386Z,1569.38
2022-08-03T08:00:08.374Z,1884.38
2022-08-03T08:01:08.438Z,1980.00
2022-08-03T08:02:08.357Z,1800.00
2022-08-03T08:03:08.352Z,1878.75
2022-08-03T08:04:08.346Z,1951.88
2022-08-03T08:05:08.334Z,1895.63
2022-08-03T08:06:08.327Z,1912.50
2022-08-03T08:07:08.321Z,1963.13
2022-08-03T08:08:08.312Z,1755.00
2022-08-03T08:09:08.305Z,1704.38
2022-08-03T08:10:08.299Z,1473.75
2022-08-03T08:11:08.293Z,1659.38
2022-08-03T08:12:15.198Z,1625.63
2022-08-03T08:13:08.286Z,1681.88
2022-08-03T08:14:08.285Z,1828.13
2022-08-03T08:15:08.279Z,1895.63
2022-08-03T08:16:08.276Z,1726.88
2022-08-03T08:17:08.266Z,1625.63
2022-08-03T08:18:08.264Z,1631.25
2022-08-03T08:19:08.264Z,1923.75
2022-08-03T08:20:08.272Z,1586.25
2022-08-03T08:21:08.720Z,1839.38
2022-08-03T08:22:08.255Z,1839.38
2022-08-03T08:23:22.295Z,1771.88
2022-08-03T08:24:11.003Z,1940.63
2022-08-03T08:25:08.252Z,1901.25
2022-08-03T08:26:08.252Z,1811.25
2022-08-03T08:27:08.269Z,1895.63
2022-08-03T08:28:22.362Z,1777.50
2022-08-03T08:29:08.251Z,1653.75
2022-08-03T08:30:11.459Z,1771.88
2022-08-03T08:31:08.259Z,1861.88
2022-08-03T08:32:08.253Z,1918.13
2022-08-03T08:33:08.693Z,1906.88
2022-08-03T08:34:08.258Z,1721.25
2022-08-03T08:35:08.259Z,1586.25
2022-08-03T08:36:12.040Z,1648.13
2022-08-03T08:37:08.260Z,1642.50
2022-08-03T08:38:08.272Z,1580.63
2022-08-03T08:39:08.271Z,1513.13
2022-08-03T08:40:08.273Z,1513.13
2022-08-03T08:41:08.274Z,1513.13
2022-08-03T08:42:08.276Z,1440.00
2022-08-03T08:43:08.279Z,1456.88
2022-08-03T08:44:08.287Z,1541.25
2022-08-03T08:45:08.285Z,1395.00
2022-08-03T08:46:08.364Z,1063.13
2022-08-03T08:47:08.289Z,1749.38
2022-08-03T08:48:08.626Z,1530.00
2022-08-03T08:49:08.391Z,1395.00
2022-08-03T08:50:22.100Z,1018.13
2022-08-03T08:51:08.302Z,1029.38
2022-08-03T08:52:22.080Z,1051.88
2022-08-03T08:53:09.759Z,990.00
2022-08-03T08:54:08.305Z,922.50
2022-08-03T08:55:08.308Z,1192.50
2022-08-03T08:56:08.309Z,900.00
2022-08-03T08:57:21.312Z,883.13
2022-08-03T08:58:08.314Z,956.25
2022-08-03T08:59:08.320Z,838.13
2022-08-03T09:00:08.317Z,613.13
2022-08-03T09:01:08.433Z,1080.00
2022-08-03T09:02:08.318Z,815.63
2022-08-03T09:03:08.325Z,624.38
2022-08-03T09:04:08.321Z,579.38
2022-08-03T09:05:08.325Z,523.13
2022-08-03T09:06:08.318Z,714.38
2022-08-03T09:07:20.002Z,551.25
2022-08-03T09:08:08.317Z,860.63
2022-08-03T09:09:08.322Z,731.25
2022-08-03T09:10:12.730Z,770.63
2022-08-03T09:11:08.314Z,731.25
2022-08-03T09:12:35.283Z,810.00
2022-08-03T09:13:08.314Z,759.38
2022-08-03T09:14:08.310Z,731.25
2022-08-03T09:15:16.895Z,444.38
2022-08-03T09:16:08.318Z,416.25
2022-08-03T09:17:08.309Z,376.88
2022-08-03T09:18:08.304Z,708.75
2022-08-03T09:19:08.303Z,939.38
2022-08-03T09:20:08.301Z,1141.88
2022-08-03T09:21:29.611Z,776.25
2022-08-03T09:22:08.294Z,590.63
2022-08-03T09:23:26.230Z,1153.13
2022-08-03T09:24:16.359Z,995.63
2022-08-03T09:25:23.942Z,911.25
2022-08-03T09:26:09.118Z,950.63
2022-08-03T09:27:08.282Z,765.00
2022-08-03T09:28:08.278Z,810.00
2022-08-03T09:29:13.759Z,866.25
2022-08-03T09:30:19.128Z,646.88
2022-08-03T09:31:08.278Z,956.25
2022-08-03T09:32:08.271Z,832.50
2022-08-03T09:33:08.545Z,838.13
2022-08-03T09:34:08.265Z,922.50
2022-08-03T09:35:09.500Z,1046.25
2022-08-03T09:36:08.261Z,871.88
2022-08-03T09:37:08.259Z,911.25
2022-08-03T09:38:12.272Z,551.25
2022-08-03T09:39:08.261Z,500.63
2022-08-03T09:40:08.485Z,472.50
2022-08-03T09:41:08.248Z,579.38
2022-08-03T09:42:08.242Z,444.38
2022-08-03T09:43:08.249Z,495.00
2022-08-03T09:44:08.235Z,545.63
2022-08-03T09:45:08.233Z,399.38
2022-08-03T09:46:08.234Z,343.13
2022-08-03T09:47:08.229Z,281.25
2022-08-03T09:48:08.225Z,286.88
2022-08-03T09:49:11.628Z,253.13
2022-08-03T09:50:08.216Z,247.50
2022-08-03T09:51:13.575Z,270.00
2022-08-03T09:52:37.625Z,275.63
2022-08-03T09:53:08.207Z,270.00
2022-08-03T09:54:16.303Z,286.88
2022-08-03T09:56:30.512Z,298.13
2022-08-03T09:56:33.264Z,270.00
2022-08-03T09:57:08.188Z,270.00
2022-08-03T09:58:08.186Z,258.75
2022-08-03T09:59:08.180Z,258.75
2022-08-03T10:00:08.591Z,253.13
2022-08-03T10:01:08.242Z,275.63
2022-08-03T10:02:08.156Z,241.88
2022-08-03T10:03:08.154Z,241.88
2022-08-03T10:04:08.147Z,247.50
2022-08-03T10:05:08.139Z,241.88
2022-08-03T10:06:08.133Z,230.63
2022-08-03T10:07:08.127Z,241.88
2022-08-03T10:08:08.122Z,270.00
2022-08-03T10:09:08.114Z,286.88
2022-08-03T10:10:30.900Z,281.25
2022-08-03T10:11:08.108Z,230.63
2022-08-03T10:12:08.094Z,241.88
2022-08-03T10:13:08.094Z,230.63
2022-08-03T10:14:08.084Z,225.00
2022-08-03T10:15:08.080Z,219.38
2022-08-03T10:16:21.476Z,225.00
2022-08-03T10:17:08.067Z,213.75
2022-08-03T10:18:08.055Z,225.00
2022-08-03T10:19:08.058Z,208.13
2022-08-03T10:20:08.050Z,219.38
2022-08-03T10:21:08.038Z,213.75
2022-08-03T10:22:08.031Z,202.50
2022-08-03T10:23:08.024Z,202.50
2022-08-03T10:24:08.016Z,202.50
2022-08-03T10:25:08.011Z,202.50
2022-08-03T10:26:08.016Z,196.88
2022-08-03T10:27:08.030Z,208.13
2022-08-03T10:28:07.991Z,247.50
2022-08-03T10:29:12.926Z,196.88
2022-08-03T10:30:07.972Z,196.88
2022-08-03T10:31:07.967Z,196.88
2022-08-03T10:32:07.961Z,258.75
2022-08-03T10:33:15.653Z,258.75
2022-08-03T10:34:07.947Z,230.63
2022-08-03T10:35:19.104Z,191.25
2022-08-03T10:36:07.932Z,191.25
2022-08-03T10:37:07.924Z,253.13
2022-08-03T10:38:07.920Z,230.63
2022-08-03T10:39:15.969Z,230.63
2022-08-03T10:40:07.904Z,196.88
2022-08-03T10:41:07.897Z,185.63
2022-08-03T10:42:10.678Z,174.38
2022-08-03T10:43:07.892Z,208.13
2022-08-03T10:44:07.879Z,191.25
2022-08-03T10:45:07.872Z,191.25
2022-08-03T10:46:07.862Z,202.50
2022-08-03T10:47:07.857Z,213.75
2022-08-03T10:48:07.853Z,191.25
2022-08-03T10:49:07.926Z,168.75
2022-08-03T10:50:07.843Z,151.88
2022-08-03T10:51:07.838Z,151.88
2022-08-03T10:52:13.661Z,157.50
2022-08-03T10:53:07.819Z,185.63
2022-08-03T10:54:07.806Z,202.50
2022-08-03T10:55:10.798Z,180.00
2022-08-03T10:56:07.799Z,163.13
2022-08-03T10:57:14.243Z,135.00
2022-08-03T10:58:11.169Z,118.13
2022-08-03T10:59:08.797Z,112.50
2022-08-03T11:00:07.765Z,112.50
2022-08-03T11:01:07.875Z,112.50
2022-08-03T11:02:07.754Z,135.00
2022-08-03T11:03:07.745Z,180.00
2022-08-03T11:04:11.948Z,208.13
2022-08-03T11:05:07.732Z,213.75
2022-08-03T11:06:07.726Z,213.75
2022-08-03T11:07:07.720Z,191.25
2022-08-03T11:08:07.713Z,151.88
2022-08-03T11:09:07.706Z,174.38
2022-08-03T11:10:10.540Z,146.25
2022-08-03T11:11:07.688Z,163.13
2022-08-03T11:12:07.679Z,146.25
2022-08-03T11:13:07.672Z,163.13
2022-08-03T11:14:07.758Z,174.38
2022-08-03T11:15:07.677Z,174.38
2022-08-03T11:16:10.912Z,191.25
2022-08-03T11:17:07.646Z,180.00
2022-08-03T11:18:07.638Z,208.13
2022-08-03T11:19:07.635Z,191.25
2022-08-03T11:20:07.625Z,196.88
2022-08-03T11:21:07.637Z,191.25
2022-08-03T11:22:07.609Z,168.75
2022-08-03T11:23:07.604Z,202.50
2022-08-03T11:24:07.597Z,185.63
2022-08-03T11:25:07.631Z,168.75
2022-08-03T11:26:07.586Z,180.00
2022-08-03T11:27:07.580Z,185.63
2022-08-03T11:28:07.569Z,174.38
2022-08-03T11:29:07.569Z,163.13
2022-08-03T11:30:07.569Z,163.13
2022-08-03T11:31:07.552Z,151.88
2022-08-03T11:32:07.539Z,151.88
2022-08-03T11:33:07.533Z,146.25
2022-08-03T11:34:07.538Z,151.88
2022-08-03T11:35:07.529Z,140.63
2022-08-03T11:36:07.514Z,146.25
2022-08-03T11:37:07.505Z,151.88
2022-08-03T11:38:07.498Z,180.00
2022-08-03T11:39:07.493Z,180.00
2022-08-03T11:40:07.487Z,180.00
2022-08-03T11:41:07.476Z,174.38
2022-08-03T11:42:07.468Z,157.50
2022-08-03T11:43:07.466Z,151.88
2022-08-03T11:44:07.458Z,101.25
2022-08-03T11:45:07.450Z,101.25
2022-08-03T11:46:07.441Z,101.25
2022-08-03T11:47:07.439Z,101.25
2022-08-03T11:48:07.431Z,112.50
2022-08-03T11:49:10.315Z,146.25
2022-08-03T11:50:07.417Z,163.13
2022-08-03T11:51:07.408Z,174.38
2022-08-03T11:52:07.406Z,168.75
2022-08-03T11:53:07.393Z,151.88
2022-08-03T11:54:07.396Z,129.38
2022-08-03T11:55:07.381Z,135.00
2022-08-03T11:56:12.625Z,163.13
2022-08-03T11:57:07.703Z,140.63
2022-08-03T11:59:01.306Z,174.38
2022-08-03T11:59:20.558Z,157.50
2022-08-03T12:00:07.348Z,163.13
2022-08-03T12:01:07.339Z,146.25
2022-08-03T12:02:07.336Z,163.13
2022-08-03T12:03:07.430Z,168.75
2022-08-03T12:04:07.339Z,163.13
2022-08-03T12:05:07.316Z,174.38
2022-08-03T12:06:07.303Z,157.50
2022-08-03T12:07:07.301Z,168.75
2022-08-03T12:08:07.457Z,168.75
2022-08-03T12:09:07.305Z,151.88
2022-08-03T12:10:07.364Z,151.88
2022-08-03T12:11:07.289Z,163.13
2022-08-03T12:12:07.269Z,163.13
2022-08-03T12:14:45.802Z,168.75
2022-08-03T12:14:48.791Z,135.00
2022-08-03T12:15:07.250Z,112.50
2022-08-03T12:16:07.285Z,118.13
2022-08-03T12:17:07.234Z,135.00
2022-08-03T12:18:07.229Z,151.88
2022-08-03T12:19:07.224Z,118.13
2022-08-03T12:20:07.241Z,146.25
2022-08-03T12:21:07.207Z,163.13
2022-08-03T12:22:07.198Z,163.13
2022-08-03T12:23:07.196Z,157.50
2022-08-03T12:24:07.194Z,168.75
2022-08-03T12:25:07.181Z,157.50
2022-08-03T12:26:07.170Z,146.25
2022-08-03T12:27:07.169Z,163.13
2022-08-03T12:28:36.376Z,168.75
2022-08-03T12:29:07.161Z,168.75
2022-08-03T12:30:07.227Z,168.75
2022-08-03T12:31:07.142Z,168.75
2022-08-03T12:32:07.134Z,168.75
2022-08-03T12:33:07.123Z,168.75
2022-08-03T12:34:07.121Z,163.13
2022-08-03T12:35:07.116Z,163.13
2022-08-03T12:36:07.118Z,163.13
2022-08-03T12:37:22.317Z,163.13
2022-08-03T12:38:07.106Z,157.50
2022-08-03T12:39:07.090Z,163.13
2022-08-03T12:40:10.417Z,163.13
2022-08-03T12:41:07.078Z,163.13
2022-08-03T12:42:07.069Z,163.13
2022-08-03T12:43:07.067Z,163.13
2022-08-03T12:44:07.074Z,163.13
2022-08-03T12:45:07.049Z,157.50
2022-08-03T12:46:07.043Z,146.25
2022-08-03T12:47:07.037Z,151.88